createdAt,value
2019-05-06T00:04:05.882Z,1015.6
2019-05-06T00:14:18.834Z,1015.5
2019-05-06T00:24:34.668Z,1015.5
2019-05-06T00:34:43.714Z,1015.5
2019-05-06T00:44:54.693Z,1015.5
2019-05-06T00:55:06.054Z,1015.5
2019-05-06T01:05:19.099Z,1015.5
2019-05-06T01:15:34.257Z,1015.5
2019-05-06T01:25:44.130Z,1015.5
2019-05-06T01:35:58.107Z,1015.5
2019-05-06T01:46:13.901Z,1015.5
2019-05-06T01:56:56.990Z,1015.5
2019-05-06T02:07:10.388Z,1015.6
2019-05-06T02:17:24.069Z,1015.6
2019-05-06T02:27:37.828Z,1015.6
2019-05-06T02:37:51.469Z,1015.6
2019-05-06T02:48:04.335Z,1015.5
2019-05-06T02:58:14.868Z,1015.4
2019-05-06T03:08:26.083Z,1015.4
2019-05-06T03:19:13.189Z,1015.3
2019-05-06T03:46:45.593Z,1015.4
2019-05-06T03:56:59.148Z,1015.4
2019-05-06T04:07:13.803Z,1015.3
2019-05-06T04:18:45.144Z,1015.3
2019-05-06T04:28:59.108Z,1015.3
2019-05-06T04:39:13.429Z,1015.2
2019-05-06T04:49:27.205Z,1015.3
2019-05-06T04:59:38.400Z,1015.3
2019-05-06T05:09:53.527Z,1015.3
2019-05-06T05:20:03.106Z,1015.3
2019-05-06T05:30:16.133Z,1015.4
2019-05-06T05:41:02.870Z,1015.4
2019-05-06T05:51:12.849Z,1015.5
2019-05-06T06:02:03.450Z,1015.5
2019-05-06T06:12:18.605Z,1015.5
2019-05-06T06:22:34.779Z,1015.4
2019-05-06T06:32:48.252Z,1015.4
2019-05-06T06:43:33.052Z,1015.4
2019-05-06T06:54:19.980Z,1015.4
2019-05-06T07:04:33.530Z,1015.3
2019-05-06T07:27:56.718Z,1015.3
2019-05-06T07:50:19.845Z,1015.4
2019-05-06T08:00:33.539Z,1015.3
2019-05-06T08:10:45.343Z,1015.3
2019-05-06T08:20:59.904Z,1015.3
2019-05-06T08:31:44.993Z,1015.4
2019-05-06T08:42:32.859Z,1015.2
2019-05-06T08:52:43.306Z,1014.9
2019-05-06T09:03:29.207Z,1015.1
2019-05-06T09:13:43.438Z,1014.9
2019-05-06T09:23:57.891Z,1014.9
2019-05-06T09:34:12.982Z,1014.6
2019-05-06T09:44:58.353Z,1014.8
2019-05-06T09:55:13.564Z,1014.8
2019-05-06T10:06:06.537Z,1014.8
2019-05-06T10:16:23.805Z,1014.2
2019-05-06T10:26:40.179Z,1014.1
2019-05-06T10:37:28.297Z,1014.1
2019-05-06T10:48:26.297Z,1014.1
2019-05-06T10:58:43.920Z,1014.4
2019-05-06T11:08:55.947Z,1013.9
2019-05-06T11:20:10.573Z,1014.1
2019-05-06T11:32:56.935Z,1013.8
2019-05-06T11:45:43.287Z,1013.8
2019-05-06T11:56:58.177Z,1013.8
2019-05-06T12:08:04.669Z,1013.8
2019-05-06T12:19:56.145Z,1013.6
2019-05-06T12:30:08.221Z,1013.6
2019-05-06T12:40:36.489Z,1014.3
2019-05-06T12:50:52.342Z,1014.3
2019-05-06T13:01:03.964Z,1013.3
2019-05-06T13:11:13.384Z,1013.3
2019-05-06T13:21:27.281Z,1013.3
2019-05-06T13:31:43.329Z,1013.3
2019-05-06T13:43:23.891Z,1013.4
2019-05-06T13:53:40.417Z,1013.5
2019-05-06T14:04:32.566Z,1013.4
2019-05-06T14:14:43.084Z,1013.3
2019-05-06T14:25:36.257Z,1013.4
2019-05-06T14:35:47.964Z,1013.4
2019-05-06T14:46:35.036Z,1013.6
2019-05-06T14:57:12.462Z,1013.8
2019-05-06T15:07:52.799Z,1013.7
2019-05-06T15:18:52.923Z,1014.0
2019-05-06T15:29:03.229Z,1014.0
2019-05-06T15:39:33.552Z,1014.0
2019-05-06T15:50:01.029Z,1013.8
2019-05-06T16:00:15.780Z,1013.9
2019-05-06T16:10:29.500Z,1013.8
2019-05-06T16:20:40.965Z,1013.7
2019-05-06T16:31:56.848Z,1013.6
2019-05-06T16:42:12.809Z,1013.6
2019-05-06T16:52:24.127Z,1013.6
2019-05-06T17:02:56.548Z,1013.6
2019-05-06T17:12:54.932Z,1013.6
2019-05-06T17:23:08.157Z,1013.8
2019-05-06T17:33:22.383Z,1013.7
2019-05-06T17:43:59.679Z,1013.7
2019-05-06T17:54:13.310Z,1013.7
2019-05-06T18:04:27.318Z,1013.7
2019-05-06T18:14:43.410Z,1013.6
2019-05-06T18:40:39.071Z,1013.9
2019-05-06T20:04:09.325Z,1014.4
2019-05-06T20:15:54.513Z,1014.6
2019-05-06T20:26:52.652Z,1014.5
2019-05-06T20:37:16.157Z,1014.6
2019-05-06T20:47:38.395Z,1014.7
2019-05-06T20:58:42.173Z,1014.6
2019-05-06T21:10:25.846Z,1014.5
2019-05-06T21:22:09.797Z,1014.6
2019-05-06T21:32:56.348Z,1014.6
2019-05-06T21:44:05.908Z,1014.7
2019-05-06T21:54:53.262Z,1014.7
2019-05-06T22:05:34.193Z,1014.6
2019-05-06T22:16:57.926Z,1014.7
2019-05-06T22:28:16.080Z,1014.7
2019-05-06T22:39:02.386Z,1014.7
2019-05-06T22:49:16.522Z,1014.6
2019-05-06T22:59:58.859Z,1014.6
2019-05-06T23:11:06.478Z,1014.8
2019-05-06T23:22:04.200Z,1014.7
2019-05-06T23:32:37.656Z,1014.6
2019-05-06T23:43:29.146Z,1014.6
2019-05-06T23:53:42.601Z,1014.7
